• Join FlightAware (Why Join?)
  • Login
  • US Flag 
03:49AM EDT


 

Airport Tracker/Info


-or-


 

Live Flight TrackerFlight Track Log ✈ N137TK ✈ 19-Aug-2013 ✈ KFMY - KGSO

Flight Track Log - Related Links

Times and Time Zones

All times are in EDT time to prevent confusion due to time zone crossing. See the N137TK flight status page for this flight to view local times or setup timezone preferences in your user account.

Time Position Orientation Groundspeed Altitude Reporting Facility
EDT Latitude Longitude Course Direction KTS MPH feet Rate Location/Type
05:13AM 26.6783 -81.8361 355° North 283 326 3,700  Level Miami Center
05:14AM 26.7286 -81.8336 North 229 264 5,500 1,920 Climbing Miami Center
05:15AM 26.7769 -81.8217 12° North 181 208 7,600 1,920 Climbing Miami Center
05:16AM 26.8253 -81.8119 10° North 171 197 9,400 1,620 Climbing Miami Center
05:17AM 26.8758 -81.8025 North 178 205 10,900 1,440 Climbing Miami Center
05:18AM 27.0333 -81.8700 355° North  Level FlightAware Approximate
05:18AM 26.9283 -81.7931 North 183 211 12,300  Level Miami Center
05:19AM 26.9828 -81.7839 North 189 217 13,700 1,260 Climbing Miami Center
05:20AM 27.0375 -81.7744 North 189 217 14,900 1,200 Climbing Miami Center
05:21AM 27.0942 -81.7628 10° North 196 226 16,200 1,260 Climbing Miami Center
05:22AM 27.1489 -81.7536 North 196 226 17,400 1,260 Climbing Miami Center
05:23AM 27.2097 -81.7422 North 202 232 18,700 1,140 Climbing Miami Center
05:24AM 27.2664 -81.7306 10° North 202 232 19,700 1,020 Climbing Miami Center
05:25AM 27.3147 -81.7208 10° North 202 232 20,800 1,020 Climbing Miami Center
05:26AM 27.3692 -81.7183 North 196 226 21,800 960 Climbing Miami Center
05:27AM 27.4297 -81.7164 North 196 226 22,800 900 Climbing Miami Center
05:28AM 27.4842 -81.7092 North 196 226 23,700 780 Climbing Miami Center
05:29AM 27.5386 -81.7069 North 196 226 24,400 600 Climbing Miami Center
05:30AM 27.5908 -81.7044 North 196 226 25,000 300 Climbing Miami Center
05:31AM 27.6536 -81.7000 North 211 243 25,000  Level Miami Center
05:32AM 27.7331 -81.6942 North 240 276 25,000  Level Miami Center
05:34AM 27.9167 -81.6783 North 274 315 25,000  Level Jacksonville Center
05:35AM 27.9961 -81.6728 North 274 315 25,000  Level Jacksonville Center
05:36AM 28.0753 -81.6694 North 274 315 25,000  Level Jacksonville Center
05:37AM 28.1544 -81.6614 North 274 315 25,000  Level Jacksonville Center
05:38AM 28.2336 -81.6581 North 274 315 25,000  Level Jacksonville Center
05:39AM 28.3108 -81.6547 North 274 315 25,000  Level Jacksonville Center
05:40AM 28.3900 -81.6467 North 274 315 25,000  Level Jacksonville Center
05:41AM 28.4778 -81.6433 North 274 315 25,000  Level Jacksonville Center
05:42AM 28.5569 -81.6375 North 279 321 25,000  Level Jacksonville Center
05:43AM 28.6361 -81.6317 North 279 321 25,000  Level Jacksonville Center
05:44AM 28.7156 -81.6283 North 279 321 25,000  Level Jacksonville Center
05:45AM 28.7969 -81.6203 North 279 321 25,000  Level Jacksonville Center
05:46AM 28.8739 -81.6147 North 279 321 25,000  Level Jacksonville Center
05:47AM 28.9553 -81.6089 North 279 321 25,000  Level Jacksonville Center
05:48AM 29.0325 -81.6078 North 284 327 25,000  Level Jacksonville Center
05:49AM 29.1117 -81.5997 North 284 327 25,000  Level Jacksonville Center
05:50AM 29.1911 -81.5939 North 284 327 25,000  Level Jacksonville Center
05:51AM 29.2683 -81.5881 North 279 321 25,000  Level Jacksonville Center
05:52AM 29.3497 -81.5847 North 279 321 25,000  Level Jacksonville Center
05:53AM 29.4289 -81.5789 North 279 321 25,000  Level Jacksonville Center
05:54AM 29.5103 -81.5728 North 284 327 25,000  Level Jacksonville Center
05:55AM 29.5894 -81.5669 North 289 333 25,000  Level Jacksonville Center
05:56AM 29.6686 -81.5611 North 289 333 25,000  Level Jacksonville Center
05:57AM 29.7500 -81.5528 North 289 333 25,000  Level Jacksonville Center
05:58AM 29.8294 -81.5469 North 289 333 25,000  Level Jacksonville Center
05:59AM 29.9128 -81.5411 North 289 333 25,000  Level Jacksonville Center
06:00AM 29.9919 -81.5353 North 289 333 25,000  Level Jacksonville Center
06:01AM 30.0714 -81.5292 North 289 333 25,000  Level Jacksonville Center
06:02AM 30.1528 -81.5233 North 289 333 25,000  Level Jacksonville Center
06:03AM 30.2319 -81.5175 North 289 333 25,000  Level Jacksonville Center
06:04AM 30.3133 -81.5114 North 289 333 25,000  Level Jacksonville Center
06:05AM 30.3883 -81.5031 North 289 333 25,000  Level Jacksonville Center
06:06AM 30.4675 -81.4947 North 289 333 25,000  Level Jacksonville Center
06:07AM 30.5489 -81.4839 North 289 333 25,000  Level Jacksonville Center
06:08AM 30.6322 -81.4731 North 289 333 25,000  Level Jacksonville Center
06:09AM 30.7136 -81.4644 North 289 333 25,000  Level Jacksonville Center
06:10AM 30.7928 -81.4536 North 289 333 25,000  Level Jacksonville Center
06:11AM 30.8742 -81.4453 North 289 333 25,000  Level Jacksonville Center
06:12AM 30.9556 -81.4342 North 289 333 25,000  Level Jacksonville Center
06:13AM 31.0347 -81.4258 North 289 333 25,000  Level Jacksonville Center
06:14AM 31.1139 -81.4122 North 289 333 25,000  Level Jacksonville Center
06:15AM 31.1953 -81.3942 11° North 294 338 25,000  Level Jacksonville Center
06:16AM 31.2700 -81.3614 21° North 288 331 25,000  Level Jacksonville Center
06:17AM 31.3447 -81.3261 22° Northeast 288 331 25,000  Level Jacksonville Center
06:18AM 31.4319 -81.2906 19° North 287 330 25,000  Level Jacksonville Center
06:19AM 31.4983 -81.2600 21° North 289 333 25,000  Level Jacksonville Center
06:20AM 31.5794 -81.2244 20° North 284 327 25,000  Level Jacksonville Center
06:21AM 31.6542 -81.1914 21° North 289 333 25,000  Level Jacksonville Center
06:22AM 31.7225 -81.1658 18° North 289 333 25,000  Level Jacksonville Center
06:23AM 31.8056 -81.1300 20° North 289 333 25,000  Level Jacksonville Center
06:24AM 31.8719 -81.0994 21° North 282 325 25,000  Level Jacksonville Center
06:25AM 31.9550 -81.0636 20° North 287 330 25,000  Level Jacksonville Center
06:26AM 32.0317 -81.0275 22° Northeast 287 330 25,000  Level Jacksonville Center
06:27AM 32.1022 -80.9992 19° North 287 330 25,000  Level Jacksonville Center
06:28AM 32.1853 -80.9631 20° North 287 330 25,000  Level Jacksonville Center
06:29AM 32.2536 -80.9347 19° North 287 330 25,000  Level Jacksonville Center
06:30AM 32.3344 -80.8986 21° North 287 330 25,000  Level Jacksonville Center
06:31AM 32.4114 -80.8675 19° North 282 325 25,000  Level Jacksonville Center
06:32AM 32.4797 -80.8364 21° North 282 325 25,000  Level Jacksonville Center
06:33AM 32.5564 -80.8000 22° Northeast 288 331 25,000  Level Jacksonville Center
06:34AM 32.6353 -80.7686 19° North 288 331 25,000  Level Jacksonville Center
06:35AM 32.7117 -80.7322 22° Northeast 288 331 25,000  Level Jacksonville Center
06:36AM 32.7883 -80.6983 20° North 288 331 25,000  Level Jacksonville Center
06:37AM 32.8650 -80.6642 21° North 288 331 25,000  Level Jacksonville Center
06:38AM 32.9417 -80.6328 19° North 288 331 25,000  Level Jacksonville Center
06:39AM 33.0183 -80.5986 20° North 288 331 25,000  Level Jacksonville Center
06:40AM 33.0950 -80.5644 20° North 288 331 25,000  Level Jacksonville Center
06:41AM 33.1694 -80.5253 24° Northeast 288 331 25,000  Level Jacksonville Center
06:42AM 33.2497 -80.4708 30° Northeast 288 331 25,000  Level Jacksonville Center
06:43AM 33.3217 -80.4192 31° Northeast 298 343 25,000  Level Jacksonville Center
06:44AM 33.3917 -80.3675 32° Northeast 298 343 25,000  Level Jacksonville Center
06:45AM 33.4658 -80.3156 30° Northeast 298 343 25,000  Level Jacksonville Center
06:46AM 33.5356 -80.2636 32° Northeast 293 337 25,000  Level Jacksonville Center
06:47AM 33.6056 -80.2119 32° Northeast 287 330 25,000  Level Jacksonville Center
06:48AM 33.6775 -80.1597 31° Northeast 287 330 25,000  Level Jacksonville Center
06:49AM 33.7472 -80.1050 33° Northeast 292 336 25,000  Level Jacksonville Center
06:50AM 33.8169 -80.0478 34° Northeast 292 336 25,000 -300 Level Jacksonville Center
06:51AM 33.8864 -79.9881 36° Northeast 298 343 24,500 -780 Descending Jacksonville Center
06:52AM 33.9558 -79.9233 38° Northeast 303 349 23,500 -840 Descending Jacksonville Center
06:53AM 34.0294 -79.8531 38° Northeast 316 364 22,900 -240 Descending Jacksonville Center
06:55AM 34.1264 -79.7586 39° Northeast 301 346 23,000  Climbing Washington Center
06:56AM 34.2011 -79.7072 30° Northeast 301 346 23,000 -360 Level Washington Center
06:57AM 34.2964 -79.6717 17° North 307 353 22,300 -840 Descending Washington Center
06:58AM 34.3842 -79.6636 North 313 360 21,300 -1,020 Descending Washington Center
06:59AM 34.4761 -79.6556 North 323 372 20,300 -1,020 Descending Washington Center
07:00AM 34.5703 -79.6500 North 328 377 19,300 -1,020 Descending Washington Center
07:01AM 34.6622 -79.6447 North 333 383 18,300 -900 Descending Washington Center
07:02AM 34.7442 -79.6311 North 333 383 17,500 -660 Descending Washington Center
07:03AM 34.8425 -79.6208 North 333 383 17,000 -300 Descending Washington Center
07:04AM 34.9200 -79.6169 North 314 361 17,000  Level Washington Center
07:05AM 35.0100 -79.6089 North 301 346 17,000 -240 Level Washington Center
07:06AM 35.0853 -79.6022 North 301 346 16,600 -780 Descending Washington Center
07:07AM 35.1817 -79.5919 North 301 346 15,500 -1,080 Descending Washington Center
07:08AM 35.2650 -79.5936 359° North 318 366 14,500 -1,140 Descending Washington Center
07:09AM 35.3586 -79.5981 358° North 313 360 13,300 -1,200 Descending Washington Center
07:11AM 35.4705 -79.6000 North  Level FlightAware Approximate
07:18AM 35.9378 -79.8878 321° Northwest  Level FlightAware Approximate
07:19AM 35.9987 -79.9436 332° Northwest  Level FlightAware Approximate
07:20AM 36.0648 -79.9451 15° North  Level FlightAware Approximate
07:21AM 36.1000 -79.9333 15° North  Level FlightAware Approximate
07:22AM 36.1013 -79.9411 15° North  Level Estimated
07:23AM 36.1000 -79.9333 15° North  Level FlightAware Approximate
07:24AM 36.1013 -79.9411 15° North  Level Estimated
07:25AM 36.1000 -79.9333 15° North  Level FlightAware Approximate